Time;durP1;ratioP1;P1;durP2;ratioP2;P2;SDS_P1;SDS_P2;PMS_P1;PMS_P2;Temp;Humidity;BMP_temperature;BMP_pressure;BME280_temperature;BME280_humidity;BME280_pressure;Samples;Min_cycle;Max_cycle;Signal;HPM_P1;HPM_P2
2023/11/05 00:00:55;;;;;;;;;1.75;1.00;;;;;;;;5069635;28;8848;-84
2023/11/05 00:03:23;;;;;;;;;1.00;1.00;;;;;;;;5046296;28;8849;-84
2023/11/05 00:05:52;;;;;;;;;0.75;0.75;;;;;;;;5038979;28;9746;-86
2023/11/05 00:08:19;;;;;;;;;1.00;1.00;;;;;;;;5034315;28;8878;-86
2023/11/05 00:10:47;;;;;;;;;2.00;1.00;;;;;;;;5051448;28;8848;-84
2023/11/05 00:13:14;;;;;;;;;3.00;1.00;;;;;;;;5051306;28;9074;-86
2023/11/05 00:15:44;;;;;;;;;0.00;0.00;;;;;;;;5050938;28;8927;-85
2023/11/05 00:18:17;;;;;;;;;1.00;1.00;;;;;;;;5051381;28;8844;-86
2023/11/05 00:20:44;;;;;;;;;0.67;0.33;;;;;;;;5050924;28;8860;-83
2023/11/05 00:23:13;;;;;;;;;1.00;1.00;;;;;;;;5051321;28;9023;-85
2023/11/05 00:25:40;;;;;;;;;0.33;0.33;;;;;;;;5037699;28;9092;-85
2023/11/05 00:28:08;;;;;;;;;0.75;0.75;;;;;;;;5051125;28;8966;-86
2023/11/05 00:30:35;;;;;;;;;1.00;1.00;;;;;;;;5033064;28;8867;-83
2023/11/05 00:33:03;;;;;;;;;1.00;1.00;;;;;;;;5049884;28;8856;-84
2023/11/05 00:35:30;;;;;;;;;1.00;1.00;;;;;;;;5050354;28;8928;-84
2023/11/05 00:37:58;;;;;;;;;1.00;1.00;;;;;;;;5049899;28;8953;-85
2023/11/05 00:40:26;;;;;;;;;0.00;0.00;;;;;;;;5050666;28;9036;-85
2023/11/05 00:42:53;;;;;;;;;0.33;0.33;;;;;;;;5050764;28;8931;-85
2023/11/05 00:45:21;;;;;;;;;4.00;2.00;;;;;;;;5042494;28;8915;-86
2023/11/05 00:47:51;;;;;;;;;0.25;0.25;;;;;;;;5050961;28;9056;-85
2023/11/05 00:50:18;;;;;;;;;0.33;0.00;;;;;;;;5049457;28;8856;-84
2023/11/05 00:52:46;;;;;;;;;1.00;1.00;;;;;;;;5050497;28;8949;-85
2023/11/05 00:55:14;;;;;;;;;2.00;0.00;;;;;;;;5034215;28;8854;-85
2023/11/05 00:57:43;;;;;;;;;1.00;0.33;;;;;;;;5041760;28;8933;-84
2023/11/05 01:00:14;;;;;;;;;0.00;0.00;;;;;;;;5052075;28;8996;-85
2023/11/05 01:02:45;;;;;;;;;1.33;1.33;;;;;;;;5054077;28;8966;-84
2023/11/05 01:05:12;;;;;;;;;0.00;0.00;;;;;;;;5037993;28;9081;-85
2023/11/05 01:07:39;;;;;;;;;2.33;1.00;;;;;;;;5055532;28;8848;-84
2023/11/05 01:10:07;;;;;;;;;1.25;1.00;;;;;;;;5049283;28;8969;-85
2023/11/05 01:12:35;;;;;;;;;1.00;1.00;;;;;;;;5055748;28;8974;-84
2023/11/05 01:15:04;;;;;;;;;1.25;0.50;;;;;;;;5054409;28;9131;-84
2023/11/05 01:17:31;;;;;;;;;1.00;1.00;;;;;;;;5042778;28;8868;-84
2023/11/05 01:19:59;;;;;;;;;1.00;1.00;;;;;;;;5044443;28;8949;-84
2023/11/05 01:22:27;;;;;;;;;0.00;0.00;;;;;;;;5035063;28;8840;-83
2023/11/05 01:24:55;;;;;;;;;0.00;0.00;;;;;;;;5047504;28;8880;-83
2023/11/05 01:27:25;;;;;;;;;1.25;0.75;;;;;;;;5051192;28;8836;-84
2023/11/05 01:29:52;;;;;;;;;0.75;0.75;;;;;;;;5049350;28;8843;-83
2023/11/05 01:32:21;;;;;;;;;0.00;0.00;;;;;;;;5049109;28;8840;-84
2023/11/05 01:34:51;;;;;;;;;1.00;1.00;;;;;;;;5049149;28;8875;-85
2023/11/05 01:37:18;;;;;;;;;1.00;1.00;;;;;;;;5023053;28;8965;-87
2023/11/05 01:39:46;;;;;;;;;0.25;0.25;;;;;;;;5031455;28;8909;-88
2023/11/05 01:42:13;;;;;;;;;2.00;0.00;;;;;;;;5049458;28;8967;-87
2023/11/05 01:44:41;;;;;;;;;0.00;0.00;;;;;;;;5049262;28;8864;-85
2023/11/05 01:47:09;;;;;;;;;1.67;0.00;;;;;;;;5037038;28;8841;-87
2023/11/05 01:49:39;;;;;;;;;0.00;0.00;;;;;;;;5049004;28;8934;-84
2023/11/05 01:52:07;;;;;;;;;0.25;0.25;;;;;;;;5048854;28;9048;-87
2023/11/05 01:54:35;;;;;;;;;1.50;0.50;;;;;;;;5049213;28;8983;-85
2023/11/05 01:57:02;;;;;;;;;0.00;0.00;;;;;;;;5049065;28;8941;-84
2023/11/05 01:59:32;;;;;;;;;0.75;0.75;;;;;;;;5049465;28;8870;-84
2023/11/05 02:02:01;;;;;;;;;0.00;0.00;;;;;;;;5050561;28;8816;-84
2023/11/05 02:04:31;;;;;;;;;1.00;1.00;;;;;;;;5053385;28;8855;-84
2023/11/05 02:07:03;;;;;;;;;2.67;0.67;;;;;;;;5023032;28;9667;-84
2023/11/05 02:09:31;;;;;;;;;2.00;0.67;;;;;;;;5052442;28;8955;-84
2023/11/05 02:11:58;;;;;;;;;0.75;0.75;;;;;;;;5053391;28;8934;-85
2023/11/05 02:14:30;;;;;;;;;2.00;1.00;;;;;;;;5052726;28;8878;-85
2023/11/05 02:16:57;;;;;;;;;0.33;0.33;;;;;;;;5054487;28;8954;-85
2023/11/05 02:19:25;;;;;;;;;0.00;0.00;;;;;;;;5064356;28;8964;-89
2023/11/05 02:21:54;;;;;;;;;1.00;0.00;;;;;;;;5073565;28;9072;-84
2023/11/05 02:24:24;;;;;;;;;1.67;0.67;;;;;;;;5053577;28;9106;-85
2023/11/05 02:26:58;;;;;;;;;1.00;0.00;;;;;;;;5053323;28;9008;-85
2023/11/05 02:29:28;;;;;;;;;0.50;0.50;;;;;;;;5053048;28;8863;-87
2023/11/05 02:31:56;;;;;;;;;0.00;0.00;;;;;;;;5050245;28;8860;-84
2023/11/05 02:34:23;;;;;;;;;0.00;0.00;;;;;;;;5040577;28;8840;-86
2023/11/05 02:36:50;;;;;;;;;1.00;1.00;;;;;;;;5053905;28;9174;-86
2023/11/05 02:39:17;;;;;;;;;0.00;0.00;;;;;;;;5054854;28;9087;-85
2023/11/05 02:41:47;;;;;;;;;0.00;0.00;;;;;;;;5069243;28;9285;-85
2023/11/05 02:44:16;;;;;;;;;0.00;0.00;;;;;;;;5076987;28;9008;-84
2023/11/05 02:46:43;;;;;;;;;1.33;0.00;;;;;;;;5056793;28;8965;-86
2023/11/05 02:49:12;;;;;;;;;0.00;0.00;;;;;;;;5060167;28;9133;-85
2023/11/05 02:51:39;;;;;;;;;0.33;0.00;;;;;;;;5059331;28;9032;-83
2023/11/05 02:54:07;;;;;;;;;1.67;0.00;;;;;;;;5052797;28;8967;-85
2023/11/05 02:56:34;;;;;;;;;2.33;0.00;;;;;;;;5060517;28;9034;-84
2023/11/05 02:59:03;;;;;;;;;0.00;0.00;;;;;;;;5060808;28;8952;-84
2023/11/05 03:01:34;;;;;;;;;0.00;0.00;;;;;;;;5068943;28;8837;-85
2023/11/05 03:04:02;;;;;;;;;0.00;0.00;;;;;;;;5061837;28;8940;-84
2023/11/05 03:06:31;;;;;;;;;0.00;0.00;;;;;;;;5054796;28;8994;-86
2023/11/05 03:08:58;;;;;;;;;0.00;0.00;;;;;;;;5054989;28;8955;-85
2023/11/05 03:11:26;;;;;;;;;0.00;0.00;;;;;;;;5055821;28;9113;-84
2023/11/05 03:13:53;;;;;;;;;1.00;0.00;;;;;;;;5054125;28;9036;-84
2023/11/05 03:16:22;;;;;;;;;0.00;0.00;;;;;;;;5052371;28;9085;-84
2023/11/05 03:18:49;;;;;;;;;3.00;0.00;;;;;;;;5051826;28;9768;-84
2023/11/05 03:21:18;;;;;;;;;0.00;0.00;;;;;;;;5050341;28;9091;-85
2023/11/05 03:23:45;;;;;;;;;0.00;0.00;;;;;;;;5051731;28;9321;-84
2023/11/05 03:26:13;;;;;;;;;2.00;0.00;;;;;;;;5050122;28;8998;-84
2023/11/05 03:28:40;;;;;;;;;0.00;0.00;;;;;;;;5039496;28;9827;-84
2023/11/05 03:31:07;;;;;;;;;0.00;0.00;;;;;;;;5051678;28;9168;-84
2023/11/05 03:33:36;;;;;;;;;0.00;0.00;;;;;;;;5049398;28;9241;-85
2023/11/05 03:36:04;;;;;;;;;0.00;0.00;;;;;;;;5041782;28;9087;-85
2023/11/05 03:38:32;;;;;;;;;1.00;0.00;;;;;;;;5050941;28;9954;-84
2023/11/05 03:41:00;;;;;;;;;2.00;0.67;;;;;;;;5051814;28;9002;-85
2023/11/05 03:43:28;;;;;;;;;0.00;0.00;;;;;;;;5051359;28;9353;-84
2023/11/05 03:45:55;;;;;;;;;0.00;0.00;;;;;;;;5051714;28;9076;-84
2023/11/05 03:48:22;;;;;;;;;0.00;0.00;;;;;;;;5051723;28;9174;-86
2023/11/05 03:50:51;;;;;;;;;0.00;0.00;;;;;;;;5051437;28;9291;-84
2023/11/05 03:53:19;;;;;;;;;0.00;0.00;;;;;;;;5033386;28;9150;-84
2023/11/05 03:55:46;;;;;;;;;1.33;1.33;;;;;;;;5051199;28;9398;-85
2023/11/05 03:58:13;;;;;;;;;3.00;0.00;;;;;;;;5050605;28;9394;-84
2023/11/05 04:00:41;;;;;;;;;1.33;0.00;;;;;;;;5050779;28;9160;-84
2023/11/05 04:03:09;;;;;;;;;0.00;0.00;;;;;;;;5051208;28;9176;-83
2023/11/05 04:05:36;;;;;;;;;1.00;0.00;;;;;;;;5050616;28;9106;-83
2023/11/05 04:08:05;;;;;;;;;1.00;0.00;;;;;;;;5051338;28;9168;-86
2023/11/05 04:10:32;;;;;;;;;2.33;0.00;;;;;;;;5051249;28;9009;-85
2023/11/05 04:13:00;;;;;;;;;0.00;0.00;;;;;;;;5051247;28;9326;-85
2023/11/05 04:15:27;;;;;;;;;0.00;0.00;;;;;;;;5050505;28;9238;-84
2023/11/05 04:17:54;;;;;;;;;0.00;0.00;;;;;;;;5050780;28;9256;-84
2023/11/05 04:20:21;;;;;;;;;0.00;0.00;;;;;;;;5051144;28;9241;-83
2023/11/05 04:22:49;;;;;;;;;0.67;0.00;;;;;;;;5050668;28;9190;-83
2023/11/05 04:25:18;;;;;;;;;0.67;0.00;;;;;;;;5044498;28;9125;-83
2023/11/05 04:27:45;;;;;;;;;2.00;0.00;;;;;;;;5042324;28;9862;-83
2023/11/05 04:30:13;;;;;;;;;4.00;0.00;;;;;;;;5050228;28;9200;-83
2023/11/05 04:32:40;;;;;;;;;0.00;0.00;;;;;;;;5050457;28;9164;-84
2023/11/05 04:35:08;;;;;;;;;0.33;0.33;;;;;;;;5045629;28;9152;-83
2023/11/05 04:37:35;;;;;;;;;0.00;0.00;;;;;;;;5044503;28;9903;-84
2023/11/05 04:40:06;;;;;;;;;0.00;0.00;;;;;;;;5038064;28;9144;-85
2023/11/05 04:42:34;;;;;;;;;0.00;0.00;;;;;;;;5057199;28;9080;-84
2023/11/05 04:45:02;;;;;;;;;0.00;0.00;;;;;;;;5053681;28;9182;-84
2023/11/05 04:47:29;;;;;;;;;0.33;0.00;;;;;;;;5052506;28;9347;-84
2023/11/05 04:49:57;;;;;;;;;1.00;0.00;;;;;;;;5055150;28;9266;-83
2023/11/05 04:52:24;;;;;;;;;0.00;0.00;;;;;;;;5060465;28;9247;-81
2023/11/05 04:54:54;;;;;;;;;0.00;0.00;;;;;;;;5050612;28;9246;-81
2023/11/05 04:57:21;;;;;;;;;0.00;0.00;;;;;;;;5050995;28;9211;-84
2023/11/05 04:59:50;;;;;;;;;3.00;1.00;;;;;;;;5052870;28;9170;-83
2023/11/05 05:02:17;;;;;;;;;2.00;0.00;;;;;;;;5052407;28;10075;-83
2023/11/05 05:04:45;;;;;;;;;0.00;0.00;;;;;;;;5049827;28;9248;-83
2023/11/05 05:07:15;;;;;;;;;0.00;0.00;;;;;;;;5049828;28;9222;-84
2023/11/05 05:09:45;;;;;;;;;0.00;0.00;;;;;;;;5049518;28;9323;-84
2023/11/05 05:12:15;;;;;;;;;1.00;0.00;;;;;;;;5045482;28;9249;-84
2023/11/05 05:14:42;;;;;;;;;0.00;0.00;;;;;;;;5040518;28;9237;-85
2023/11/05 05:17:11;;;;;;;;;0.00;0.00;;;;;;;;5044834;28;9167;-84
2023/11/05 05:19:38;;;;;;;;;0.00;0.00;;;;;;;;5040558;28;9088;-84
2023/11/05 05:22:06;;;;;;;;;0.00;0.00;;;;;;;;5048874;28;9168;-84
2023/11/05 05:24:34;;;;;;;;;0.00;0.00;;;;;;;;5049350;28;9141;-84
2023/11/05 05:27:01;;;;;;;;;0.00;0.00;;;;;;;;5048916;28;9267;-83
2023/11/05 05:29:28;;;;;;;;;0.00;0.00;;;;;;;;5058473;28;9176;-83
2023/11/05 05:32:00;;;;;;;;;0.00;0.00;;;;;;;;5055882;28;9092;-84
2023/11/05 05:34:31;;;;;;;;;1.00;0.00;;;;;;;;5073853;28;9206;-85
2023/11/05 05:36:59;;;;;;;;;0.00;0.00;;;;;;;;5041351;28;9095;-84
2023/11/05 05:39:26;;;;;;;;;0.00;0.00;;;;;;;;5049683;28;9020;-84
2023/11/05 05:41:54;;;;;;;;;1.00;0.00;;;;;;;;5049770;28;8998;-84
2023/11/05 05:44:21;;;;;;;;;0.00;0.00;;;;;;;;5049192;28;9818;-85
2023/11/05 05:46:48;;;;;;;;;0.00;0.00;;;;;;;;5041645;28;9029;-85
2023/11/05 05:49:16;;;;;;;;;0.00;0.00;;;;;;;;5043428;28;9028;-83
2023/11/05 05:51:44;;;;;;;;;2.00;0.00;;;;;;;;5049447;28;9381;-84
2023/11/05 05:54:12;;;;;;;;;0.00;0.00;;;;;;;;5032052;28;9204;-84
2023/11/05 05:56:39;;;;;;;;;1.67;0.00;;;;;;;;5049332;28;9842;-84
2023/11/05 05:59:06;;;;;;;;;2.33;0.00;;;;;;;;5048950;28;9238;-85
2023/11/05 06:01:36;;;;;;;;;1.00;1.00;;;;;;;;5049408;28;9160;-85
2023/11/05 06:04:04;;;;;;;;;0.00;0.00;;;;;;;;5048566;28;9169;-85
2023/11/05 06:06:31;;;;;;;;;0.33;0.33;;;;;;;;5049881;28;9226;-85
2023/11/05 06:09:00;;;;;;;;;1.00;1.00;;;;;;;;5048750;28;9405;-84
2023/11/05 06:11:27;;;;;;;;;1.00;1.00;;;;;;;;5049575;28;9345;-83
2023/11/05 06:13:55;;;;;;;;;0.33;0.33;;;;;;;;5036168;28;9331;-85
2023/11/05 06:16:22;;;;;;;;;0.00;0.00;;;;;;;;5049141;28;9264;-87
2023/11/05 06:18:53;;;;;;;;;1.67;0.00;;;;;;;;5038629;28;9156;-84
2023/11/05 06:21:20;;;;;;;;;0.00;0.00;;;;;;;;5043993;28;9283;-82
2023/11/05 06:23:48;;;;;;;;;0.00;0.00;;;;;;;;5049520;28;9305;-78
2023/11/05 06:26:17;;;;;;;;;0.00;0.00;;;;;;;;5052635;28;9177;-78
2023/11/05 06:28:44;;;;;;;;;0.67;0.00;;;;;;;;5052534;28;9080;-82
2023/11/05 06:31:14;;;;;;;;;0.00;0.00;;;;;;;;5053229;28;9072;-79
2023/11/05 06:33:44;;;;;;;;;1.00;0.00;;;;;;;;5053160;28;9330;-81
2023/11/05 06:36:13;;;;;;;;;0.00;0.00;;;;;;;;5052585;28;9268;-80
2023/11/05 06:38:41;;;;;;;;;0.00;0.00;;;;;;;;5050795;28;9249;-80
2023/11/05 06:41:08;;;;;;;;;0.00;0.00;;;;;;;;5047698;28;9219;-82
2023/11/05 06:43:38;;;;;;;;;0.00;0.00;;;;;;;;5038901;28;9172;-76
2023/11/05 06:46:08;;;;;;;;;0.00;0.00;;;;;;;;5051174;28;9201;-84
2023/11/05 06:48:36;;;;;;;;;0.00;0.00;;;;;;;;5051632;28;9194;-83
2023/11/05 06:51:04;;;;;;;;;0.00;0.00;;;;;;;;5052009;28;9253;-79
2023/11/05 06:53:31;;;;;;;;;0.00;0.00;;;;;;;;5052252;28;9222;-82
2023/11/05 06:56:01;;;;;;;;;0.00;0.00;;;;;;;;5051196;28;9257;-81
2023/11/05 06:58:28;;;;;;;;;0.00;0.00;;;;;;;;5052341;28;9161;-82
2023/11/05 07:00:57;;;;;;;;;0.67;0.00;;;;;;;;5050978;28;9700;-84
2023/11/05 07:03:24;;;;;;;;;0.00;0.00;;;;;;;;5050980;28;9250;-80
2023/11/05 07:05:52;;;;;;;;;1.33;0.00;;;;;;;;5051247;28;9148;-81
2023/11/05 07:08:19;;;;;;;;;2.00;0.00;;;;;;;;5051086;28;9253;-81
2023/11/05 07:10:48;;;;;;;;;1.00;0.00;;;;;;;;5050483;28;9961;-81
2023/11/05 07:13:15;;;;;;;;;0.00;0.00;;;;;;;;5064138;28;9299;-75
2023/11/05 07:15:43;;;;;;;;;0.00;0.00;;;;;;;;5056825;28;9223;-77
2023/11/05 07:18:14;;;;;;;;;0.00;0.00;;;;;;;;5051165;28;9337;-78
2023/11/05 07:20:44;;;;;;;;;0.00;0.00;;;;;;;;5051010;28;9026;-80
2023/11/05 07:23:15;;;;;;;;;2.00;0.00;;;;;;;;5051144;28;8945;-80
2023/11/05 07:25:42;;;;;;;;;0.00;0.00;;;;;;;;5047252;28;9025;-78
2023/11/05 07:28:09;;;;;;;;;0.00;0.00;;;;;;;;5051056;28;9018;-85
2023/11/05 07:30:37;;;;;;;;;0.00;0.00;;;;;;;;5050803;28;9014;-80
2023/11/05 07:33:05;;;;;;;;;0.00;0.00;;;;;;;;5050920;28;8988;-84
2023/11/05 07:35:34;;;;;;;;;0.00;0.00;;;;;;;;5051217;28;8997;-81
2023/11/05 07:38:04;;;;;;;;;0.00;0.00;;;;;;;;5050703;28;8935;-79
2023/11/05 07:40:32;;;;;;;;;0.00;0.00;;;;;;;;5050926;28;8828;-80
2023/11/05 07:42:59;;;;;;;;;0.00;0.00;;;;;;;;5050571;28;10052;-82
2023/11/05 07:45:27;;;;;;;;;0.50;0.00;;;;;;;;5050709;28;8839;-81
2023/11/05 07:47:56;;;;;;;;;1.33;0.00;;;;;;;;5050664;28;8934;-77
2023/11/05 07:50:25;;;;;;;;;0.00;0.00;;;;;;;;5050999;28;8933;-78
2023/11/05 07:52:55;;;;;;;;;0.00;0.00;;;;;;;;5051358;28;8837;-82
2023/11/05 07:55:26;;;;;;;;;0.00;0.00;;;;;;;;5051226;28;8852;-79
2023/11/05 07:57:53;;;;;;;;;0.00;0.00;;;;;;;;5036742;28;8860;-78
2023/11/05 08:00:20;;;;;;;;;0.00;0.00;;;;;;;;5049966;28;8956;-78
2023/11/05 08:02:48;;;;;;;;;0.00;0.00;;;;;;;;5049989;28;8832;-76
2023/11/05 08:05:15;;;;;;;;;0.00;0.00;;;;;;;;5051138;28;8852;-74
2023/11/05 08:07:44;;;;;;;;;0.00;0.00;;;;;;;;5052433;28;9697;-77
2023/11/05 08:10:15;;;;;;;;;0.00;0.00;;;;;;;;5053807;28;8856;-76
2023/11/05 08:12:42;;;;;;;;;1.00;0.00;;;;;;;;5050575;28;8945;-76
2023/11/05 08:15:13;;;;;;;;;0.00;0.00;;;;;;;;5055188;28;8875;-75
2023/11/05 08:17:42;;;;;;;;;1.00;1.00;;;;;;;;5055218;28;8852;-78
2023/11/05 08:20:14;;;;;;;;;0.00;0.00;;;;;;;;5059187;28;8836;-77
2023/11/05 08:22:44;;;;;;;;;0.00;0.00;;;;;;;;5068551;28;8840;-75
2023/11/05 08:25:13;;;;;;;;;0.00;0.00;;;;;;;;5064907;28;8836;-77
2023/11/05 08:27:41;;;;;;;;;0.00;0.00;;;;;;;;5052865;28;8871;-76
2023/11/05 08:30:13;;;;;;;;;0.50;0.50;;;;;;;;5052372;28;8852;-77
2023/11/05 08:32:43;;;;;;;;;0.00;0.00;;;;;;;;5051948;28;8864;-77
2023/11/05 08:35:11;;;;;;;;;0.00;0.00;;;;;;;;5049474;28;8976;-75
2023/11/05 08:37:38;;;;;;;;;0.00;0.00;;;;;;;;5049630;28;8832;-76
2023/11/05 08:40:13;;;;;;;;;0.00;0.00;;;;;;;;5049223;28;9640;-75
2023/11/05 08:42:43;;;;;;;;;2.75;1.00;;;;;;;;5048488;28;8867;-77
2023/11/05 08:45:11;;;;;;;;;0.00;0.00;;;;;;;;5036189;28;8915;-75
2023/11/05 08:47:38;;;;;;;;;0.00;0.00;;;;;;;;5048594;28;8855;-77
2023/11/05 08:50:07;;;;;;;;;0.00;0.00;;;;;;;;5048320;28;8917;-77
2023/11/05 08:52:38;;;;;;;;;0.50;0.00;;;;;;;;5048858;28;8843;-75
2023/11/05 08:55:12;;;;;;;;;0.25;0.25;;;;;;;;5048868;28;8863;-75
2023/11/05 08:57:39;;;;;;;;;0.00;0.00;;;;;;;;5048332;28;8860;-74
2023/11/05 09:00:12;;;;;;;;;0.00;0.00;;;;;;;;5048973;28;8832;-74
2023/11/05 09:02:39;;;;;;;;;0.00;0.00;;;;;;;;5048930;28;8832;-77
2023/11/05 09:05:07;;;;;;;;;3.25;1.00;;;;;;;;5048583;28;8856;-77
2023/11/05 09:07:37;;;;;;;;;0.00;0.00;;;;;;;;5048597;28;8828;-75
2023/11/05 09:10:09;;;;;;;;;0.00;0.00;;;;;;;;5049049;28;8836;-75
2023/11/05 09:12:40;;;;;;;;;0.00;0.00;;;;;;;;5047370;28;8902;-74
2023/11/05 09:15:08;;;;;;;;;0.00;0.00;;;;;;;;5048060;28;8856;-74
2023/11/05 09:17:36;;;;;;;;;0.00;0.00;;;;;;;;5036665;28;8871;-77
2023/11/05 09:20:04;;;;;;;;;0.00;0.00;;;;;;;;5048113;28;8856;-75
2023/11/05 09:22:31;;;;;;;;;0.00;0.00;;;;;;;;5048395;28;8898;-75
2023/11/05 09:25:03;;;;;;;;;0.00;0.00;;;;;;;;5048495;28;8979;-76
2023/11/05 09:27:31;;;;;;;;;0.00;0.00;;;;;;;;5048113;28;8975;-78
2023/11/05 09:29:59;;;;;;;;;0.00;0.00;;;;;;;;5048212;28;8910;-76
2023/11/05 09:32:27;;;;;;;;;0.00;0.00;;;;;;;;5048111;28;8848;-76
2023/11/05 09:34:54;;;;;;;;;0.00;0.00;;;;;;;;5048041;28;8964;-77
2023/11/05 09:37:21;;;;;;;;;0.00;0.00;;;;;;;;5048875;28;8959;-78
2023/11/05 09:39:48;;;;;;;;;0.00;0.00;;;;;;;;5050656;28;8832;-71
2023/11/05 09:42:17;;;;;;;;;0.00;0.00;;;;;;;;5056656;28;8848;-74
2023/11/05 09:44:47;;;;;;;;;0.00;0.00;;;;;;;;5044210;28;8875;-77
2023/11/05 09:47:16;;;;;;;;;0.50;0.50;;;;;;;;5043909;28;8824;-80
2023/11/05 09:49:43;;;;;;;;;1.00;0.00;;;;;;;;5045040;28;8962;-76
2023/11/05 09:52:13;;;;;;;;;1.00;1.00;;;;;;;;5050948;28;9717;-77
2023/11/05 09:54:46;;;;;;;;;0.25;0.25;;;;;;;;5051695;28;9737;-77
2023/11/05 09:57:13;;;;;;;;;0.00;0.00;;;;;;;;5048621;28;8990;-77
2023/11/05 09:59:47;;;;;;;;;0.00;0.00;;;;;;;;5048130;28;8932;-76
2023/11/05 10:02:15;;;;;;;;;0.00;0.00;;;;;;;;5049601;28;8871;-77
2023/11/05 10:04:43;;;;;;;;;0.00;0.00;;;;;;;;5051838;28;8910;-78
2023/11/05 10:07:13;;;;;;;;;0.00;0.00;;;;;;;;5050013;28;8909;-76
2023/11/05 10:09:41;;;;;;;;;1.00;1.00;;;;;;;;5048677;28;8833;-71
2023/11/05 10:12:10;;;;;;;;;2.00;0.00;;;;;;;;5048418;28;8832;-71
2023/11/05 10:14:38;;;;;;;;;3.00;1.25;;;;;;;;5048748;28;8844;-73
2023/11/05 10:17:05;;;;;;;;;5.00;2.33;;;;;;;;5048741;28;9587;-75
2023/11/05 10:19:40;;;;;;;;;1.00;1.00;;;;;;;;5047656;28;9726;-75
2023/11/05 10:22:19;;;;;;;;;2.75;1.50;;;;;;;;5046855;28;8843;-74
2023/11/05 10:24:46;;;;;;;;;3.25;1.75;;;;;;;;5051194;28;8844;-75
2023/11/05 10:27:27;;;;;;;;;4.00;2.00;;;;;;;;5046548;28;8836;-75
2023/11/05 10:29:56;;;;;;;;;2.50;1.00;;;;;;;;5051316;28;8864;-74
2023/11/05 10:32:24;;;;;;;;;2.00;2.00;;;;;;;;5051372;28;8933;-79
2023/11/05 10:34:55;;;;;;;;;2.00;2.00;;;;;;;;5050813;28;8878;-76
2023/11/05 10:37:23;;;;;;;;;2.00;2.00;;;;;;;;5051867;28;9642;-77
2023/11/05 10:39:50;;;;;;;;;4.00;2.67;;;;;;;;5052056;28;8844;-75
2023/11/05 10:42:20;;;;;;;;;3.00;3.00;;;;;;;;5051275;28;9005;-76
2023/11/05 10:44:49;;;;;;;;;2.00;2.00;;;;;;;;5051484;28;9640;-75
2023/11/05 10:47:17;;;;;;;;;2.75;2.75;;;;;;;;5050786;28;9094;-74
2023/11/05 10:49:48;;;;;;;;;2.00;2.00;;;;;;;;5045495;28;8842;-75
2023/11/05 10:52:17;;;;;;;;;5.75;2.75;;;;;;;;5043457;28;8885;-74
2023/11/05 10:54:44;;;;;;;;;4.00;4.00;;;;;;;;5050768;28;8856;-77
2023/11/05 10:57:39;;;;;;;;;4.00;4.00;;;;;;;;5051044;28;8840;-78
2023/11/05 11:00:11;;;;;;;;;4.67;3.33;;;;;;;;5042130;28;8848;-75
2023/11/05 11:02:39;;;;;;;;;4.50;4.50;;;;;;;;5044446;28;8934;-73
2023/11/05 11:05:07;;;;;;;;;4.25;4.00;;;;;;;;5072159;28;8856;-73
2023/11/05 11:07:38;;;;;;;;;7.00;4.00;;;;;;;;5071906;28;8836;-76
2023/11/05 11:10:09;;;;;;;;;4.50;4.00;;;;;;;;5066754;28;9011;-74
2023/11/05 11:12:38;;;;;;;;;3.25;3.25;;;;;;;;5051245;28;9595;-78
2023/11/05 11:15:13;;;;;;;;;6.00;4.67;;;;;;;;5051896;28;8844;-75
2023/11/05 11:17:41;;;;;;;;;7.67;7.67;;;;;;;;5047765;28;9686;-76
2023/11/05 11:20:09;;;;;;;;;8.00;8.00;;;;;;;;5049977;28;9014;-75
2023/11/05 11:22:47;;;;;;;;;6.00;6.00;;;;;;;;5048119;28;9068;-74
2023/11/05 11:25:16;;;;;;;;;7.25;7.00;;;;;;;;5050380;28;8915;-78
2023/11/05 11:27:44;;;;;;;;;6.00;4.00;;;;;;;;5050902;28;8961;-75
2023/11/05 11:30:12;;;;;;;;;3.50;3.50;;;;;;;;5051406;28;8860;-77
2023/11/05 11:32:40;;;;;;;;;4.00;3.00;;;;;;;;5034293;28;8975;-76
2023/11/05 11:35:08;;;;;;;;;7.00;5.50;;;;;;;;5053485;28;8913;-76
2023/11/05 11:37:35;;;;;;;;;5.00;5.00;;;;;;;;5056668;28;8862;-73
2023/11/05 11:40:13;;;;;;;;;4.25;4.25;;;;;;;;5055913;28;8820;-73
2023/11/05 11:42:42;;;;;;;;;4.00;4.00;;;;;;;;5053540;28;8879;-77
2023/11/05 11:45:09;;;;;;;;;4.00;4.00;;;;;;;;5043755;28;8874;-74
2023/11/05 11:47:37;;;;;;;;;4.50;4.50;;;;;;;;5054866;28;8832;-76
2023/11/05 11:50:09;;;;;;;;;3.25;3.25;;;;;;;;5051156;28;8892;-72
2023/11/05 11:52:46;;;;;;;;;6.00;4.50;;;;;;;;5051582;28;9086;-74
2023/11/05 11:55:16;;;;;;;;;3.00;3.00;;;;;;;;5051560;28;9685;-76
2023/11/05 11:57:43;;;;;;;;;2.00;2.00;;;;;;;;5051973;28;8824;-77
2023/11/05 12:00:12;;;;;;;;;3.00;3.00;;;;;;;;5050626;28;8824;-75
2023/11/05 12:02:43;;;;;;;;;1.50;1.50;;;;;;;;5050429;28;8867;-75
2023/11/05 12:05:10;;;;;;;;;0.00;0.00;;;;;;;;5041935;28;8848;-76
2023/11/05 12:07:44;;;;;;;;;1.00;1.00;;;;;;;;5048888;28;8828;-76
2023/11/05 12:10:16;;;;;;;;;2.75;2.75;;;;;;;;5049095;28;8840;-77
2023/11/05 12:12:46;;;;;;;;;2.00;2.00;;;;;;;;5049164;28;8832;-76
2023/11/05 12:15:14;;;;;;;;;1.25;1.00;;;;;;;;5049396;28;9642;-75
2023/11/05 12:17:42;;;;;;;;;2.25;2.25;;;;;;;;5049476;28;8866;-76
2023/11/05 12:20:14;;;;;;;;;4.25;2.25;;;;;;;;5049234;28;8852;-75
2023/11/05 12:22:42;;;;;;;;;3.00;1.00;;;;;;;;5043599;28;8852;-73
2023/11/05 12:25:13;;;;;;;;;2.00;2.00;;;;;;;;5049346;28;8848;-75
2023/11/05 12:27:47;;;;;;;;;5.00;2.00;;;;;;;;5048794;28;8848;-73
2023/11/05 12:30:20;;;;;;;;;4.00;3.25;;;;;;;;5049022;28;9618;-74
2023/11/05 12:32:50;;;;;;;;;1.50;1.50;;;;;;;;5049661;28;8852;-74
2023/11/05 12:35:18;;;;;;;;;2.00;0.00;;;;;;;;5049032;28;8849;-74
2023/11/05 12:37:45;;;;;;;;;3.00;2.00;;;;;;;;5036904;28;8854;-79
2023/11/05 12:40:14;;;;;;;;;3.00;1.25;;;;;;;;5048830;28;8840;-75
2023/11/05 12:42:45;;;;;;;;;2.75;0.75;;;;;;;;5048770;28;8914;-74
2023/11/05 12:45:14;;;;;;;;;1.50;1.00;;;;;;;;5038206;28;8836;-76
2023/11/05 12:47:44;;;;;;;;;3.00;1.25;;;;;;;;5048653;28;8836;-74
2023/11/05 12:50:14;;;;;;;;;1.00;1.00;;;;;;;;5049404;28;8840;-76
2023/11/05 12:52:42;;;;;;;;;0.00;0.00;;;;;;;;5046477;28;9591;-77
2023/11/05 12:55:30;;;;;;;;;1.00;1.00;;;;;;;;5039419;28;8844;-74
2023/11/05 12:57:58;;;;;;;;;1.00;1.00;;;;;;;;5033543;28;8824;-73
2023/11/05 13:00:27;;;;;;;;;0.25;0.25;;;;;;;;5037169;28;9259;-74
2023/11/05 13:03:04;;;;;;;;;2.50;1.00;;;;;;;;5048972;28;8858;-80
2023/11/05 13:05:31;;;;;;;;;1.75;0.00;;;;;;;;5049582;28;8855;-76
2023/11/05 13:07:59;;;;;;;;;1.00;1.00;;;;;;;;5048887;28;8918;-74
2023/11/05 13:10:26;;;;;;;;;1.00;1.00;;;;;;;;5049032;28;8870;-77
2023/11/05 13:12:54;;;;;;;;;1.00;1.00;;;;;;;;5050020;28;9598;-79
2023/11/05 13:15:21;;;;;;;;;3.25;1.00;;;;;;;;5049899;28;8870;-74
2023/11/05 13:17:50;;;;;;;;;0.00;0.00;;;;;;;;5051337;28;8885;-75
2023/11/05 13:20:19;;;;;;;;;0.25;0.25;;;;;;;;5052460;28;8900;-75
2023/11/05 13:23:07;;;;;;;;;;;;;;;;;;;;;
2023/11/05 13:25:39;;;;;;;;;0.75;0.75;;;;;;;;5015261;28;8826;-78
2023/11/05 13:28:11;;;;;;;;;0.50;0.50;;;;;;;;5052413;28;9033;-75
2023/11/05 13:30:42;;;;;;;;;2.00;0.00;;;;;;;;5050700;28;8848;-75
2023/11/05 13:33:18;;;;;;;;;0.00;0.00;;;;;;;;5052838;28;8979;-75
2023/11/05 13:35:47;;;;;;;;;1.00;1.00;;;;;;;;5042546;28;8891;-76
2023/11/05 13:38:14;;;;;;;;;1.00;1.00;;;;;;;;5052949;28;8824;-76
2023/11/05 13:40:45;;;;;;;;;0.00;0.00;;;;;;;;5064542;28;9048;-72
2023/11/05 13:43:15;;;;;;;;;1.00;1.00;;;;;;;;5069242;28;8824;-72
2023/11/05 13:45:48;;;;;;;;;0.75;0.75;;;;;;;;5054780;28;8851;-76
2023/11/05 13:48:20;;;;;;;;;1.00;1.00;;;;;;;;5050364;28;9638;-74
2023/11/05 13:50:51;;;;;;;;;0.00;0.00;;;;;;;;5047745;28;8917;-73
2023/11/05 13:53:25;;;;;;;;;1.00;1.00;;;;;;;;5052370;28;8843;-82
2023/11/05 13:55:53;;;;;;;;;1.00;1.00;;;;;;;;5048693;28;8864;-73
2023/11/05 13:58:20;;;;;;;;;2.00;2.00;;;;;;;;5048266;28;8963;-76
2023/11/05 14:00:48;;;;;;;;;3.00;2.00;;;;;;;;5052145;28;8866;-76
2023/11/05 14:03:17;;;;;;;;;0.25;0.25;;;;;;;;5056400;28;8840;-73
2023/11/05 14:05:46;;;;;;;;;0.25;0.25;;;;;;;;5054568;28;8836;-72
2023/11/05 14:08:13;;;;;;;;;0.00;0.00;;;;;;;;5052649;28;8847;-74
2023/11/05 14:10:47;;;;;;;;;0.75;0.75;;;;;;;;5051593;28;8946;-73
2023/11/05 14:13:14;;;;;;;;;1.50;0.50;;;;;;;;5052062;28;9630;-76
2023/11/05 14:15:47;;;;;;;;;1.00;1.00;;;;;;;;5051985;28;8844;-74
2023/11/05 14:18:22;;;;;;;;;0.25;0.25;;;;;;;;5054411;28;8840;-74
2023/11/05 14:20:58;;;;;;;;;1.00;1.00;;;;;;;;5053276;28;8836;-73
2023/11/05 14:23:26;;;;;;;;;2.75;0.00;;;;;;;;5053478;28;8840;-74
2023/11/05 14:25:53;;;;;;;;;1.00;1.00;;;;;;;;5051082;28;9571;-74
2023/11/05 14:28:20;;;;;;;;;1.00;1.00;;;;;;;;5051390;28;8828;-73
2023/11/05 14:30:48;;;;;;;;;1.00;1.00;;;;;;;;5050931;28;8836;-73
2023/11/05 14:33:15;;;;;;;;;1.25;0.75;;;;;;;;5051613;28;8860;-73
2023/11/05 14:35:45;;;;;;;;;1.00;1.00;;;;;;;;5051663;28;8856;-75
2023/11/05 14:38:14;;;;;;;;;0.00;0.00;;;;;;;;5051282;28;8974;-74
2023/11/05 14:40:41;;;;;;;;;1.00;1.00;;;;;;;;5051453;28;8848;-73
2023/11/05 14:43:09;;;;;;;;;2.25;1.25;;;;;;;;5051141;28;8864;-80
2023/11/05 14:45:39;;;;;;;;;1.00;1.00;;;;;;;;5051459;28;8871;-79
2023/11/05 14:48:06;;;;;;;;;1.00;1.00;;;;;;;;5051025;28;8848;-72
2023/11/05 14:50:35;;;;;;;;;1.75;0.50;;;;;;;;5051342;28;8844;-79
2023/11/05 14:53:03;;;;;;;;;0.75;0.75;;;;;;;;5050818;28;8978;-79
2023/11/05 14:55:31;;;;;;;;;1.00;1.00;;;;;;;;5051634;28;8870;-80
2023/11/05 14:58:02;;;;;;;;;0.00;0.00;;;;;;;;5051066;28;8878;-73
2023/11/05 15:00:32;;;;;;;;;1.00;1.00;;;;;;;;5051670;28;8900;-75
2023/11/05 15:03:03;;;;;;;;;1.00;1.00;;;;;;;;5053143;28;8866;-79
2023/11/05 15:05:31;;;;;;;;;0.25;0.25;;;;;;;;5053051;28;8848;-73
2023/11/05 15:07:58;;;;;;;;;0.25;0.25;;;;;;;;5052511;28;8857;-74